createdAt,value
2023-04-23T00:02:12.209Z,8.19
2023-04-23T00:04:40.524Z,8.08
2023-04-23T00:07:09.318Z,8.04
2023-04-23T00:09:38.719Z,8.03
2023-04-23T00:12:07.913Z,7.99
2023-04-23T00:14:36.346Z,7.95
2023-04-23T00:17:04.289Z,7.93
2023-04-23T00:19:32.230Z,7.86
2023-04-23T00:22:00.173Z,7.78
2023-04-23T00:24:28.135Z,7.80
2023-04-23T00:26:57.422Z,7.85
2023-04-23T00:29:25.410Z,7.67
2023-04-23T00:31:53.349Z,7.66
2023-04-23T00:34:21.430Z,7.64
2023-04-23T00:36:49.361Z,7.63
2023-04-23T00:39:17.315Z,7.63
2023-04-23T00:41:45.303Z,7.63
2023-04-23T00:44:14.621Z,7.62
2023-04-23T00:46:42.556Z,7.49
2023-04-23T00:49:10.485Z,7.52
2023-04-23T00:51:38.387Z,7.50
2023-04-23T00:54:06.507Z,7.45
2023-04-23T00:56:34.481Z,7.53
2023-04-23T00:59:03.364Z,7.54
2023-04-23T01:01:33.419Z,7.45
2023-04-23T01:04:01.579Z,7.50
2023-04-23T01:06:31.772Z,7.54
2023-04-23T01:08:59.747Z,7.45
2023-04-23T01:11:27.665Z,7.46
2023-04-23T01:13:56.222Z,7.55
2023-04-23T01:16:24.214Z,7.57
2023-04-23T01:18:53.812Z,7.61
2023-04-23T01:21:21.958Z,7.59
2023-04-23T01:23:51.352Z,7.59
2023-04-23T01:26:19.694Z,7.60
2023-04-23T01:28:47.644Z,7.56
2023-04-23T01:31:15.762Z,7.56
2023-04-23T01:33:44.049Z,7.51
2023-04-23T01:36:11.956Z,7.47
2023-04-23T01:38:39.967Z,7.44
2023-04-23T01:41:09.325Z,7.40
2023-04-23T01:43:37.237Z,7.37
2023-04-23T01:46:05.470Z,7.37
2023-04-23T01:48:33.443Z,7.32
2023-04-23T01:51:01.470Z,7.28
2023-04-23T01:53:29.370Z,7.24
2023-04-23T01:55:57.447Z,7.21
2023-04-23T01:58:26.790Z,7.20
2023-04-23T02:00:54.739Z,7.14
2023-04-23T02:03:22.812Z,7.09
2023-04-23T02:05:50.903Z,7.03
2023-04-23T02:08:18.956Z,6.99
2023-04-23T02:10:46.955Z,6.94
2023-04-23T02:13:14.917Z,6.96
2023-04-23T02:15:44.353Z,7.00
2023-04-23T02:18:12.299Z,7.00
2023-04-23T02:20:41.432Z,6.99
2023-04-23T02:23:09.433Z,7.01
2023-04-23T02:25:38.554Z,7.02
2023-04-23T02:28:07.415Z,7.04
2023-04-23T02:30:35.469Z,7.05
2023-04-23T02:33:05.192Z,7.01
2023-04-23T02:35:33.162Z,6.99
2023-04-23T02:38:01.140Z,6.96
2023-04-23T02:40:29.263Z,6.94
2023-04-23T02:42:57.205Z,6.92
2023-04-23T02:45:25.303Z,6.90
2023-04-23T02:47:53.630Z,6.87
2023-04-23T02:50:23.203Z,6.81
2023-04-23T02:52:51.258Z,6.77
2023-04-23T02:55:19.266Z,6.76
2023-04-23T02:57:47.213Z,6.75
2023-04-23T03:00:17.103Z,6.75
2023-04-23T03:02:45.305Z,6.72
2023-04-23T03:05:13.413Z,6.79
2023-04-23T03:07:42.896Z,6.79
2023-04-23T03:10:11.165Z,6.75
2023-04-23T03:12:39.257Z,6.71
2023-04-23T03:15:08.297Z,6.76
2023-04-23T03:17:36.304Z,6.77
2023-04-23T03:20:04.385Z,6.72
2023-04-23T03:22:32.298Z,6.72
2023-04-23T03:25:01.656Z,6.73
2023-04-23T03:27:29.631Z,6.77
2023-04-23T03:29:57.586Z,6.77
2023-04-23T03:32:25.810Z,6.78
2023-04-23T03:34:53.779Z,6.76
2023-04-23T03:37:21.727Z,6.76
2023-04-23T03:39:49.710Z,6.78
2023-04-23T03:42:19.043Z,6.75
2023-04-23T03:44:46.938Z,6.72
2023-04-23T03:47:14.887Z,6.74
2023-04-23T03:49:42.833Z,6.80
2023-04-23T03:52:10.835Z,6.86
2023-04-23T03:54:38.852Z,6.92
2023-04-23T03:57:07.307Z,6.94
2023-04-23T03:59:36.868Z,7.07
2023-04-23T04:02:05.132Z,7.22
2023-04-23T04:04:33.626Z,7.39
2023-04-23T04:07:01.835Z,7.55
2023-04-23T04:09:29.856Z,7.67
2023-04-23T04:11:57.811Z,7.78
2023-04-23T04:14:25.745Z,7.85
2023-04-23T04:16:55.060Z,7.87
2023-04-23T04:19:22.996Z,7.95
2023-04-23T04:21:51.269Z,8.05
2023-04-23T04:24:19.320Z,8.14
2023-04-23T04:26:47.686Z,8.66
2023-04-23T04:29:15.888Z,9.94
2023-04-23T04:31:43.893Z,11.21
2023-04-23T04:34:14.891Z,11.52
2023-04-23T04:36:43.227Z,11.72
2023-04-23T04:39:11.288Z,12.00
2023-04-23T04:41:39.235Z,13.36
2023-04-23T04:44:07.351Z,14.84
2023-04-23T04:46:40.368Z,16.50
2023-04-23T04:49:09.324Z,18.02
2023-04-23T04:51:39.610Z,19.07
2023-04-23T04:54:07.752Z,19.80
2023-04-23T04:56:35.717Z,20.01
2023-04-23T04:59:04.070Z,19.71
2023-04-23T05:01:32.618Z,20.04
2023-04-23T05:04:00.877Z,19.89
2023-04-23T05:06:29.804Z,18.44
2023-04-23T05:08:59.092Z,17.46
2023-04-23T05:11:27.070Z,17.28
2023-04-23T05:13:55.049Z,16.62
2023-04-23T05:16:23.344Z,16.03
2023-04-23T05:18:52.162Z,15.24
2023-04-23T05:21:20.188Z,15.10
2023-04-23T05:23:48.587Z,14.37
2023-04-23T05:26:18.276Z,14.31
2023-04-23T05:28:46.284Z,14.51
2023-04-23T05:31:14.332Z,14.55
2023-04-23T05:33:49.730Z,14.86
2023-04-23T05:36:18.903Z,14.91
2023-04-23T05:38:46.844Z,14.61
2023-04-23T05:41:14.793Z,14.66
2023-04-23T05:43:44.332Z,14.30
2023-04-23T05:46:12.382Z,14.03
2023-04-23T05:48:40.383Z,14.46
2023-04-23T05:51:08.372Z,14.83
2023-04-23T05:53:36.543Z,15.14
2023-04-23T05:56:04.627Z,15.01
2023-04-23T05:58:32.590Z,15.05
2023-04-23T06:01:01.969Z,15.16
2023-04-23T06:03:30.138Z,14.86
2023-04-23T06:05:58.390Z,14.88
2023-04-23T06:08:26.484Z,15.57
2023-04-23T06:10:55.920Z,16.17
2023-04-23T06:13:23.887Z,16.87
2023-04-23T06:15:51.900Z,17.44
2023-04-23T06:18:21.254Z,18.18
2023-04-23T06:20:51.575Z,18.22
2023-04-23T06:23:19.630Z,18.36
2023-04-23T06:25:47.595Z,18.77
2023-04-23T06:28:16.204Z,19.15
2023-04-23T06:30:44.192Z,19.28
2023-04-23T06:33:12.553Z,19.43
2023-04-23T06:35:41.858Z,19.68
2023-04-23T06:38:09.821Z,19.40
2023-04-23T06:40:37.823Z,18.97
2023-04-23T06:43:06.323Z,19.00
2023-04-23T06:45:34.279Z,19.05
2023-04-23T06:48:02.253Z,19.02
2023-04-23T06:50:31.155Z,18.96
2023-04-23T06:53:00.443Z,19.29
2023-04-23T06:55:29.165Z,20.58
2023-04-23T06:57:57.294Z,21.37
2023-04-23T07:00:25.293Z,22.40
2023-04-23T07:02:54.525Z,22.81
2023-04-23T07:05:22.636Z,23.76
2023-04-23T07:07:50.598Z,24.21
2023-04-23T07:10:20.019Z,22.46
2023-04-23T07:12:47.954Z,21.38
2023-04-23T07:15:15.930Z,21.56
2023-04-23T07:17:43.927Z,23.00
2023-04-23T07:20:12.574Z,24.60
2023-04-23T07:22:40.626Z,25.02
2023-04-23T07:25:09.768Z,23.99
2023-04-23T07:27:39.043Z,23.45
2023-04-23T07:30:10.195Z,22.86
2023-04-23T07:32:38.381Z,22.95
2023-04-23T07:35:07.209Z,22.35
2023-04-23T07:37:35.148Z,21.93
2023-04-23T07:40:03.117Z,21.88
2023-04-23T07:42:31.030Z,22.30
2023-04-23T07:45:00.378Z,23.15
2023-04-23T07:47:28.405Z,22.84
2023-04-23T07:49:56.411Z,23.20
2023-04-23T07:52:24.339Z,23.16
2023-04-23T07:54:52.302Z,22.87
2023-04-23T07:57:20.355Z,22.29
2023-04-23T07:59:48.322Z,22.05
2023-04-23T08:02:18.606Z,21.54
2023-04-23T08:04:46.972Z,21.64
2023-04-23T08:07:15.071Z,21.68
2023-04-23T08:09:43.628Z,21.59
2023-04-23T08:12:11.961Z,21.57
2023-04-23T08:14:39.909Z,21.60
2023-04-23T08:17:07.881Z,21.40
2023-04-23T08:19:37.263Z,21.69
2023-04-23T08:22:05.856Z,20.98
2023-04-23T08:24:33.872Z,21.09
2023-04-23T08:27:01.838Z,21.18
2023-04-23T08:29:29.840Z,21.24
2023-04-23T08:31:57.886Z,21.01
2023-04-23T08:34:26.144Z,20.99
2023-04-23T08:36:55.481Z,21.00
2023-04-23T08:39:23.457Z,20.90
2023-04-23T08:41:55.258Z,20.92
2023-04-23T08:44:24.186Z,20.80
2023-04-23T08:46:52.279Z,20.72
2023-04-23T08:49:20.390Z,20.68
2023-04-23T08:51:50.522Z,20.84
2023-04-23T08:54:27.955Z,20.73
2023-04-23T08:56:57.556Z,20.74
2023-04-23T08:59:25.780Z,20.82
2023-04-23T09:01:53.934Z,21.24
2023-04-23T09:04:22.248Z,21.21
2023-04-23T09:06:50.217Z,21.15
2023-04-23T09:09:18.580Z,21.22
2023-04-23T09:11:47.906Z,21.28
2023-04-23T09:14:15.871Z,21.33
2023-04-23T09:16:44.543Z,21.43
2023-04-23T09:19:12.588Z,21.33
2023-04-23T09:21:40.721Z,21.35
2023-04-23T09:24:12.168Z,21.36
2023-04-23T09:26:47.248Z,21.64
2023-04-23T09:29:17.590Z,21.60
2023-04-23T09:31:45.912Z,21.67
2023-04-23T09:34:13.851Z,21.79
2023-04-23T09:36:41.827Z,21.81
2023-04-23T09:39:13.723Z,21.51
2023-04-23T09:41:41.655Z,21.61
2023-04-23T09:44:12.420Z,21.79
2023-04-23T09:46:41.667Z,21.85
2023-04-23T09:49:10.660Z,22.04
2023-04-23T09:51:39.475Z,21.97
2023-04-23T09:54:12.304Z,22.04
2023-04-23T09:56:40.437Z,22.02
2023-04-23T09:59:32.057Z,22.14
2023-04-23T10:02:04.794Z,22.55
2023-04-23T10:04:32.897Z,23.02
2023-04-23T10:09:35.509Z,23.13
2023-04-23T10:12:04.018Z,23.33
2023-04-23T10:14:33.331Z,23.25
2023-04-23T10:17:02.024Z,23.23
2023-04-23T10:19:30.127Z,23.63
2023-04-23T10:22:12.084Z,23.85
2023-04-23T10:24:48.699Z,24.25
2023-04-23T10:27:30.847Z,24.31
2023-04-23T10:30:06.923Z,24.08
2023-04-23T10:32:35.000Z,24.04
2023-04-23T10:35:02.994Z,23.93
2023-04-23T10:37:31.025Z,24.51
2023-04-23T10:40:02.632Z,24.98
2023-04-23T10:42:30.957Z,25.16
2023-04-23T10:45:04.713Z,25.21
2023-04-23T10:47:39.642Z,25.27
2023-04-23T10:50:20.197Z,25.01
2023-04-23T10:52:51.538Z,24.93
2023-04-23T10:55:20.394Z,25.28
2023-04-23T10:58:03.235Z,24.80
2023-04-23T11:00:32.179Z,24.45
2023-04-23T11:03:01.574Z,24.41
2023-04-23T11:05:29.656Z,24.78
2023-04-23T11:08:18.105Z,25.86
2023-04-23T11:10:56.856Z,26.82
2023-04-23T11:13:26.073Z,27.71
2023-04-23T11:16:19.398Z,28.13
2023-04-23T11:18:59.374Z,28.44
2023-04-23T11:22:01.684Z,27.88
2023-04-23T11:24:30.574Z,27.58
2023-04-23T11:26:58.610Z,27.61
2023-04-23T11:29:27.223Z,27.47
2023-04-23T11:34:27.885Z,27.09
2023-04-23T11:36:56.316Z,26.82
2023-04-23T11:39:25.842Z,26.73
2023-04-23T11:41:54.285Z,26.52
2023-04-23T11:44:22.875Z,27.04
2023-04-23T11:46:50.933Z,27.81
2023-04-23T11:49:18.889Z,28.23
2023-04-23T11:51:48.792Z,27.60
2023-04-23T11:54:16.790Z,28.45
2023-04-23T11:56:44.925Z,28.82
2023-04-23T11:59:12.845Z,29.78
2023-04-23T12:01:44.382Z,30.27
2023-04-23T12:04:16.466Z,30.79
2023-04-23T12:06:45.713Z,30.16
2023-04-23T12:09:15.966Z,30.96
2023-04-23T12:11:44.389Z,32.26
2023-04-23T12:14:12.836Z,32.81
2023-04-23T12:16:41.470Z,31.63
2023-04-23T12:19:09.882Z,31.16
2023-04-23T12:21:49.167Z,30.05
2023-04-23T12:24:18.503Z,28.33
2023-04-23T12:26:46.487Z,28.57
2023-04-23T12:29:14.456Z,28.30
2023-04-23T12:31:44.200Z,28.98
2023-04-23T12:34:13.514Z,29.79
2023-04-23T12:36:41.496Z,29.11
2023-04-23T12:39:24.497Z,28.05
2023-04-23T12:41:52.786Z,26.93
2023-04-23T12:44:21.148Z,26.36
2023-04-23T12:46:51.754Z,25.55
2023-04-23T12:49:19.792Z,25.02
2023-04-23T12:51:47.762Z,24.68
2023-04-23T12:54:15.730Z,24.31
2023-04-23T12:56:45.075Z,23.63
2023-04-23T12:59:13.001Z,23.66
2023-04-23T13:01:41.046Z,23.67
2023-04-23T13:04:09.072Z,23.65
2023-04-23T13:06:37.276Z,23.60
2023-04-23T13:09:05.512Z,23.48
2023-04-23T13:11:33.458Z,23.38
2023-04-23T13:14:02.774Z,23.23
2023-04-23T13:16:31.044Z,23.21
2023-04-23T13:18:59.042Z,23.25
2023-04-23T13:21:27.053Z,23.00
2023-04-23T13:23:54.966Z,23.02
2023-04-23T13:26:22.957Z,22.88
2023-04-23T13:28:50.917Z,22.50
2023-04-23T13:31:20.280Z,22.52
2023-04-23T13:33:48.268Z,22.69
2023-04-23T13:36:16.218Z,22.66
2023-04-23T13:38:44.139Z,22.65
2023-04-23T13:41:12.092Z,22.75
2023-04-23T13:43:40.026Z,22.67
2023-04-23T13:46:08.065Z,22.77
2023-04-23T13:48:37.381Z,22.65
2023-04-23T13:51:13.581Z,22.89
2023-04-23T13:53:49.633Z,22.99
2023-04-23T13:56:17.544Z,23.23
2023-04-23T13:58:47.339Z,23.34
2023-04-23T14:01:15.831Z,23.42
2023-04-23T14:03:45.176Z,23.49
2023-04-23T14:06:13.129Z,23.47
2023-04-23T14:08:41.350Z,23.51
2023-04-23T14:11:09.265Z,23.50
2023-04-23T14:13:37.399Z,23.82
2023-04-23T14:16:05.508Z,24.07
2023-04-23T14:18:33.625Z,24.08
2023-04-23T14:21:02.933Z,24.17
2023-04-23T14:23:52.703Z,24.35
2023-04-23T14:26:40.832Z,24.38
2023-04-23T14:29:19.823Z,24.04
2023-04-23T14:31:47.761Z,23.85
2023-04-23T14:34:16.421Z,23.67
2023-04-23T14:36:49.173Z,23.56
2023-04-23T14:39:17.442Z,23.62
2023-04-23T14:41:45.427Z,23.45
2023-04-23T14:44:13.347Z,22.83
2023-04-23T14:46:41.380Z,22.97
2023-04-23T14:49:09.413Z,22.86
2023-04-23T14:51:37.472Z,22.61
2023-04-23T14:54:07.267Z,22.53
2023-04-23T14:56:35.197Z,22.36
2023-04-23T14:59:03.321Z,22.01
2023-04-23T15:01:31.374Z,21.99
2023-04-23T15:03:59.586Z,21.96
2023-04-23T15:06:27.610Z,21.76
2023-04-23T15:08:55.610Z,21.73
2023-04-23T15:11:24.960Z,21.58
2023-04-23T15:13:57.759Z,21.63
2023-04-23T15:16:46.633Z,21.50
2023-04-23T15:19:17.894Z,21.39
2023-04-23T15:21:46.187Z,21.32
2023-04-23T15:24:14.120Z,21.06
2023-04-23T15:26:43.540Z,21.11
2023-04-23T15:29:11.559Z,21.02
2023-04-23T15:31:39.592Z,20.93
2023-04-23T15:34:09.204Z,20.77
2023-04-23T15:36:37.904Z,20.58
2023-04-23T15:39:06.417Z,20.43
2023-04-23T15:41:34.402Z,20.35
2023-04-23T15:44:04.280Z,20.27
2023-04-23T15:46:32.207Z,20.09
2023-04-23T15:49:00.263Z,19.95
2023-04-23T15:51:28.218Z,19.80
2023-04-23T15:53:56.154Z,19.71
2023-04-23T15:56:24.364Z,19.60
2023-04-23T15:58:52.336Z,19.55
2023-04-23T16:01:21.661Z,19.42
2023-04-23T16:04:07.974Z,19.36
2023-04-23T16:06:37.153Z,19.21
2023-04-23T16:09:07.304Z,19.09
2023-04-23T16:11:35.823Z,18.97
2023-04-23T16:14:03.746Z,18.84
2023-04-23T16:16:33.134Z,18.65
2023-04-23T16:19:02.025Z,18.54
2023-04-23T16:21:29.993Z,18.47
2023-04-23T16:23:57.976Z,18.34
2023-04-23T16:26:25.929Z,18.27
2023-04-23T16:29:05.402Z,18.18
2023-04-23T16:31:43.203Z,18.11
2023-04-23T16:34:11.113Z,18.03
2023-04-23T16:36:39.082Z,17.92
2023-04-23T16:39:07.093Z,17.87
2023-04-23T16:41:35.012Z,17.81
2023-04-23T16:44:02.947Z,17.74
2023-04-23T16:46:31.865Z,17.70
2023-04-23T16:49:01.457Z,17.55
2023-04-23T16:51:29.691Z,17.54
2023-04-23T16:53:57.942Z,17.53
2023-04-23T16:56:25.864Z,17.52
2023-04-23T16:58:53.830Z,17.49
2023-04-23T17:01:21.850Z,17.44
2023-04-23T17:03:49.912Z,17.36
2023-04-23T17:06:22.170Z,17.29
2023-04-23T17:08:50.108Z,17.19
2023-04-23T17:11:18.010Z,17.14
2023-04-23T17:13:46.034Z,17.07
2023-04-23T17:16:14.087Z,17.07
2023-04-23T17:18:42.084Z,17.07
2023-04-23T17:21:10.130Z,17.03
2023-04-23T17:23:39.423Z,16.98
2023-04-23T17:26:07.405Z,16.92
2023-04-23T17:28:35.804Z,16.85
2023-04-23T17:31:04.033Z,16.76
2023-04-23T17:33:32.473Z,16.65
2023-04-23T17:36:00.409Z,16.49
2023-04-23T17:38:29.056Z,16.34
2023-04-23T17:40:58.760Z,16.19
2023-04-23T17:43:27.382Z,16.06
2023-04-23T17:45:55.327Z,15.87
2023-04-23T17:48:23.458Z,15.72
2023-04-23T17:50:51.398Z,15.70
2023-04-23T17:53:19.539Z,15.63
2023-04-23T17:55:47.784Z,15.53
2023-04-23T17:58:17.142Z,15.47
2023-04-23T18:00:45.095Z,15.45
2023-04-23T18:03:16.661Z,15.35
2023-04-23T18:05:45.087Z,15.28
2023-04-23T18:08:13.021Z,15.23
2023-04-23T18:10:41.070Z,15.11
2023-04-23T18:13:11.588Z,15.15
2023-04-23T18:15:41.762Z,15.09
2023-04-23T18:18:09.867Z,15.02
2023-04-23T18:20:39.106Z,14.95
2023-04-23T18:23:08.052Z,14.97
2023-04-23T18:25:36.156Z,14.89
2023-04-23T18:28:04.599Z,14.88
2023-04-23T18:30:32.536Z,14.86
2023-04-23T18:33:04.099Z,14.83
2023-04-23T18:35:32.227Z,14.88
2023-04-23T18:38:02.629Z,14.75
2023-04-23T18:40:30.610Z,14.87
2023-04-23T18:42:58.576Z,14.91
2023-04-23T18:45:26.494Z,14.85
2023-04-23T18:47:58.323Z,14.89
2023-04-23T18:50:39.010Z,14.82
2023-04-23T18:53:06.931Z,14.83
2023-04-23T18:55:34.927Z,15.01
2023-04-23T18:58:02.881Z,15.08
2023-04-23T19:00:30.867Z,15.08
2023-04-23T19:02:59.261Z,15.09
2023-04-23T19:05:27.433Z,15.06
2023-04-23T19:07:57.239Z,15.07
2023-04-23T19:10:25.202Z,15.01
2023-04-23T19:12:53.168Z,14.97
2023-04-23T19:15:21.194Z,14.95
2023-04-23T19:17:49.165Z,14.83
2023-04-23T19:20:18.689Z,14.92
2023-04-23T19:22:46.666Z,14.88
2023-04-23T19:25:16.045Z,14.83
2023-04-23T19:27:43.978Z,14.80
2023-04-23T19:30:12.752Z,14.70
2023-04-23T19:32:40.791Z,14.72
2023-04-23T19:35:09.233Z,14.68
2023-04-23T19:37:37.227Z,14.60
2023-04-23T19:40:05.849Z,14.52
2023-04-23T19:42:35.150Z,14.46
2023-04-23T19:45:03.268Z,14.40
2023-04-23T19:47:32.558Z,14.37
2023-04-23T19:50:00.620Z,14.29
2023-04-23T19:52:28.776Z,14.23
2023-04-23T19:54:56.746Z,14.15
2023-04-23T19:57:24.716Z,14.04
2023-04-23T19:59:54.120Z,14.00
2023-04-23T20:02:22.140Z,13.91
2023-04-23T20:04:50.097Z,13.86
2023-04-23T20:07:18.077Z,13.70
2023-04-23T20:09:46.037Z,13.57
2023-04-23T20:12:14.218Z,13.56
2023-04-23T20:14:42.554Z,13.49
2023-04-23T20:17:11.837Z,13.36
2023-04-23T20:19:39.994Z,13.38
2023-04-23T20:22:08.031Z,13.36
2023-04-23T20:24:38.157Z,13.35
2023-04-23T20:27:07.046Z,13.31
2023-04-23T20:29:35.074Z,13.25
2023-04-23T20:32:03.065Z,13.25
2023-04-23T20:34:32.339Z,13.18
2023-04-23T20:37:00.233Z,13.09
2023-04-23T20:39:28.179Z,13.00
2023-04-23T20:41:57.859Z,12.97
2023-04-23T20:44:25.987Z,12.85
2023-04-23T20:46:53.944Z,12.83
2023-04-23T20:49:22.423Z,12.80
2023-04-23T20:51:51.782Z,12.74
2023-04-23T20:54:19.726Z,12.72
2023-04-23T20:56:47.702Z,12.57
2023-04-23T20:59:15.962Z,12.56
2023-04-23T21:01:44.001Z,12.49
2023-04-23T21:04:12.340Z,12.40
2023-04-23T21:06:40.512Z,12.25
2023-04-23T21:09:10.539Z,12.30
2023-04-23T21:11:38.488Z,12.27
2023-04-23T21:14:08.811Z,12.20
2023-04-23T21:16:36.981Z,12.20
2023-04-23T21:19:05.108Z,12.17
2023-04-23T21:21:33.109Z,12.12
2023-04-23T21:24:01.270Z,12.17
2023-04-23T21:26:30.730Z,12.12
2023-04-23T21:28:58.695Z,12.07
2023-04-23T21:31:35.129Z,11.99
2023-04-23T21:34:03.146Z,11.90
2023-04-23T21:36:31.586Z,11.90
2023-04-23T21:38:59.869Z,11.84
2023-04-23T21:41:27.781Z,11.85
2023-04-23T21:43:57.097Z,11.84
2023-04-23T21:46:25.198Z,11.76
2023-04-23T21:48:53.656Z,11.77
2023-04-23T21:51:22.530Z,11.66
2023-04-23T21:53:50.495Z,11.69
2023-04-23T21:56:18.600Z,11.60
2023-04-23T21:58:46.695Z,11.67
2023-04-23T22:01:17.415Z,11.64
2023-04-23T22:03:47.013Z,11.66
2023-04-23T22:06:15.659Z,11.64
2023-04-23T22:08:44.851Z,11.65
2023-04-23T22:11:12.891Z,11.68
2023-04-23T22:13:40.821Z,11.70
2023-04-23T22:16:24.561Z,11.78
2023-04-23T22:18:57.688Z,11.83
2023-04-23T22:21:25.719Z,11.83
2023-04-23T22:23:53.700Z,11.91
2023-04-23T22:26:21.724Z,12.07
2023-04-23T22:28:49.638Z,12.15
2023-04-23T22:31:18.473Z,12.15
2023-04-23T22:33:46.495Z,12.18
2023-04-23T22:36:16.947Z,12.17
2023-04-23T22:38:44.918Z,12.14
2023-04-23T22:41:13.270Z,12.09
2023-04-23T22:43:41.184Z,12.09
2023-04-23T22:46:09.211Z,12.00
2023-04-23T22:48:43.970Z,11.89
2023-04-23T22:51:11.962Z,11.84
2023-04-23T22:53:41.258Z,11.79
2023-04-23T22:56:09.176Z,11.70
2023-04-23T22:58:37.675Z,11.65
2023-04-23T23:01:06.014Z,11.46
2023-04-23T23:03:34.177Z,11.33
2023-04-23T23:06:02.243Z,11.27
2023-04-23T23:08:30.187Z,11.15
2023-04-23T23:10:59.477Z,11.00
2023-04-23T23:13:27.433Z,10.96
2023-04-23T23:15:55.710Z,10.89
2023-04-23T23:18:23.692Z,10.81
2023-04-23T23:20:51.632Z,10.75
2023-04-23T23:23:19.522Z,10.74
2023-04-23T23:25:47.442Z,10.75
2023-04-23T23:28:16.742Z,10.74
2023-04-23T23:30:44.692Z,10.83
2023-04-23T23:33:12.657Z,10.86
2023-04-23T23:35:42.552Z,10.88
2023-04-23T23:38:12.010Z,10.85
2023-04-23T23:40:40.029Z,10.88
2023-04-23T23:43:07.947Z,10.94
2023-04-23T23:45:37.190Z,10.92
2023-04-23T23:48:05.719Z,10.94
2023-04-23T23:50:33.779Z,10.96
2023-04-23T23:53:01.767Z,10.97
2023-04-23T23:55:29.844Z,10.98
2023-04-23T23:57:57.780Z,11.01
